Time;durP1;ratioP1;P1;durP2;ratioP2;P2;SDS_P1;SDS_P2;PMS_P1;PMS_P2;Temp;Humidity;BMP_temperature;BMP_pressure;BME280_temperature;BME280_humidity;BME280_pressure;Samples;Min_cycle;Max_cycle;Signal;HPM_P1;HPM_P2
2021/11/20 00:00:37;;;;;;;2.07;1.10;;;;;;;;;;5091712;28;20040;-63
2021/11/20 00:03:04;;;;;;;5.73;1.80;;;;;;;;;;5091798;28;20493;-63
2021/11/20 00:05:33;;;;;;;4.67;1.97;;;;;;;;;;5092255;28;20077;-63
2021/11/20 00:08:01;;;;;;;4.27;1.30;;;;;;;;;;5087811;28;20037;-64
2021/11/20 00:10:29;;;;;;;3.20;1.30;;;;;;;;;;5087374;28;20046;-63
2021/11/20 00:12:56;;;;;;;2.53;1.17;;;;;;;;;;5086914;28;20482;-63
2021/11/20 00:15:26;;;;;;;8.83;1.20;;;;;;;;;;5087098;28;20580;-63
2021/11/20 00:17:52;;;;;;;2.13;0.70;;;;;;;;;;5089756;28;20530;-63
2021/11/20 00:20:21;;;;;;;1.73;0.60;;;;;;;;;;5091976;28;20054;-63
2021/11/20 00:22:49;;;;;;;1.17;0.50;;;;;;;;;;5091959;28;20064;-63
2021/11/20 00:25:23;;;;;;;1.83;0.70;;;;;;;;;;5092460;28;20020;-63
2021/11/20 00:27:53;;;;;;;2.20;0.77;;;;;;;;;;5092193;28;20021;-64
2021/11/20 00:30:22;;;;;;;1.70;0.60;;;;;;;;;;5087833;28;20697;-63
2021/11/20 00:32:58;;;;;;;0.93;0.40;;;;;;;;;;5086360;28;20432;-62
2021/11/20 00:35:32;;;;;;;1.10;0.40;;;;;;;;;;5086369;28;20032;-63
2021/11/20 00:37:59;;;;;;;1.20;0.30;;;;;;;;;;5086333;28;20193;-63
2021/11/20 00:40:29;;;;;;;0.97;0.50;;;;;;;;;;5091577;28;20020;-63
2021/11/20 00:42:55;;;;;;;3.47;1.70;;;;;;;;;;5091899;28;20382;-63
2021/11/20 00:45:22;;;;;;;2.53;0.80;;;;;;;;;;5091422;28;20031;-62
2021/11/20 00:47:49;;;;;;;1.23;0.50;;;;;;;;;;5091865;28;20035;-63
2021/11/20 00:50:18;;;;;;;4.80;0.90;;;;;;;;;;5091982;28;20382;-63
2021/11/20 00:52:45;;;;;;;1.10;0.70;;;;;;;;;;5086815;28;20032;-63
2021/11/20 00:55:14;;;;;;;2.77;0.53;;;;;;;;;;5086821;28;20115;-63
2021/11/20 00:57:42;;;;;;;0.43;0.27;;;;;;;;;;5086524;28;20055;-62
2021/11/20 01:00:11;;;;;;;12.60;0.80;;;;;;;;;;5086450;28;20514;-63
2021/11/20 01:02:38;;;;;;;0.40;0.30;;;;;;;;;;5090529;28;20035;-63
2021/11/20 01:05:05;;;;;;;1.83;0.60;;;;;;;;;;5091682;28;20059;-62
2021/11/20 01:07:32;;;;;;;1.40;0.70;;;;;;;;;;5091458;28;20023;-62
2021/11/20 01:09:59;;;;;;;4.40;1.07;;;;;;;;;;5091863;28;20051;-63
2021/11/20 01:12:29;;;;;;;0.97;0.40;;;;;;;;;;5093361;28;20073;-63
2021/11/20 01:14:56;;;;;;;2.53;0.47;;;;;;;;;;5090202;28;20043;-63
2021/11/20 01:17:24;;;;;;;1.90;0.33;;;;;;;;;;5090358;28;20023;-63
2021/11/20 01:19:51;;;;;;;0.67;0.30;;;;;;;;;;5090557;28;20034;-62
2021/11/20 01:22:19;;;;;;;2.37;0.30;;;;;;;;;;5089729;28;20023;-63
2021/11/20 01:24:46;;;;;;;1.03;0.37;;;;;;;;;;5094232;28;20031;-62
2021/11/20 01:27:13;;;;;;;0.87;0.30;;;;;;;;;;5095101;28;20514;-62
2021/11/20 01:29:40;;;;;;;2.20;0.30;;;;;;;;;;5095260;28;20044;-62
2021/11/20 01:32:07;;;;;;;1.57;0.20;;;;;;;;;;5095116;28;20050;-63
2021/11/20 01:34:34;;;;;;;1.13;0.30;;;;;;;;;;5095118;28;20064;-62
2021/11/20 01:37:02;;;;;;;6.30;0.50;;;;;;;;;;5090817;28;20022;-64
2021/11/20 01:39:31;;;;;;;1.40;0.40;;;;;;;;;;5089805;28;20020;-64
2021/11/20 01:42:00;;;;;;;1.80;0.23;;;;;;;;;;5089680;28;20055;-64
2021/11/20 01:44:33;;;;;;;2.47;0.40;;;;;;;;;;5089064;28;20036;-62
2021/11/20 01:47:02;;;;;;;1.57;0.30;;;;;;;;;;5093482;28;20062;-62
2021/11/20 01:49:31;;;;;;;0.57;0.20;;;;;;;;;;5095200;28;20099;-62
2021/11/20 01:52:09;;;;;;;1.07;0.30;;;;;;;;;;5094718;28;20028;-63
2021/11/20 01:55:05;;;;;;;0.40;0.27;;;;;;;;;;5074707;28;20044;-62
2021/11/20 01:57:32;;;;;;;0.30;0.30;;;;;;;;;;5065976;28;20047;-62
2021/11/20 02:00:02;;;;;;;1.97;0.27;;;;;;;;;;5088829;28;20036;-62
2021/11/20 02:02:36;;;;;;;0.27;0.20;;;;;;;;;;5089426;28;20024;-62
2021/11/20 02:05:03;;;;;;;0.40;0.20;;;;;;;;;;5089326;28;20056;-62
2021/11/20 02:07:34;;;;;;;0.30;0.20;;;;;;;;;;5089347;28;20031;-62
2021/11/20 02:10:01;;;;;;;12.37;0.40;;;;;;;;;;5094170;28;20032;-63
2021/11/20 02:12:37;;;;;;;0.57;0.10;;;;;;;;;;5093083;28;20455;-62
2021/11/20 02:15:08;;;;;;;0.07;0.07;;;;;;;;;;5094609;28;20028;-62
2021/11/20 02:17:38;;;;;;;0.70;0.20;;;;;;;;;;5094743;28;20020;-62
2021/11/20 02:20:14;;;;;;;0.50;0.20;;;;;;;;;;5093688;28;20397;-62
2021/11/20 02:22:41;;;;;;;0.10;0.10;;;;;;;;;;5088404;28;20020;-62
2021/11/20 02:25:07;;;;;;;0.10;0.03;;;;;;;;;;5088805;28;20090;-63
2021/11/20 02:27:41;;;;;;;1.20;0.20;;;;;;;;;;5088962;28;20096;-62
2021/11/20 02:30:14;;;;;;;1.17;0.30;;;;;;;;;;5089840;28;20016;-62
2021/11/20 02:32:41;;;;;;;0.53;0.17;;;;;;;;;;5094014;28;20046;-62
2021/11/20 02:35:08;;;;;;;1.40;0.40;;;;;;;;;;5093825;28;20028;-62
2021/11/20 02:37:35;;;;;;;1.77;0.30;;;;;;;;;;5093962;28;20162;-62
2021/11/20 02:40:04;;;;;;;2.20;0.20;;;;;;;;;;5093377;28;20027;-63
2021/11/20 02:42:31;;;;;;;0.50;0.20;;;;;;;;;;5092033;28;20491;-62
2021/11/20 02:44:57;;;;;;;1.80;0.20;;;;;;;;;;5088502;28;20024;-62
2021/11/20 02:47:29;;;;;;;0.27;0.10;;;;;;;;;;5088657;28;20016;-62
2021/11/20 02:49:56;;;;;;;0.63;0.20;;;;;;;;;;5088846;28;20020;-62
2021/11/20 02:52:23;;;;;;;0.30;0.20;;;;;;;;;;5088791;28;20043;-63
2021/11/20 02:54:51;;;;;;;0.87;0.20;;;;;;;;;;5093773;28;20043;-62
2021/11/20 02:57:23;;;;;;;0.20;0.10;;;;;;;;;;5093110;28;20479;-62
2021/11/20 02:59:50;;;;;;;0.10;0.10;;;;;;;;;;5093730;28;20024;-62
2021/11/20 03:02:17;;;;;;;0.30;0.10;;;;;;;;;;5093555;28;20471;-62
2021/11/20 03:04:44;;;;;;;0.40;0.17;;;;;;;;;;5091858;28;20028;-62
2021/11/20 03:07:11;;;;;;;0.10;0.10;;;;;;;;;;5088049;28;20020;-62
2021/11/20 03:09:38;;;;;;;1.70;0.10;;;;;;;;;;5087713;28;20478;-62
2021/11/20 03:12:07;;;;;;;2.00;0.10;;;;;;;;;;5087527;28;20035;-62
2021/11/20 03:14:35;;;;;;;0.60;0.10;;;;;;;;;;5088655;28;20441;-62
2021/11/20 03:17:04;;;;;;;1.13;0.10;;;;;;;;;;5093168;28;20032;-62
2021/11/20 03:19:33;;;;;;;2.33;0.50;;;;;;;;;;5092884;28;20052;-62
2021/11/20 03:22:04;;;;;;;0.97;0.10;;;;;;;;;;5093216;28;20082;-62
2021/11/20 03:24:31;;;;;;;0.70;0.30;;;;;;;;;;5093084;28;20481;-62
2021/11/20 03:26:58;;;;;;;8.83;0.37;;;;;;;;;;5091905;28;20031;-62
2021/11/20 03:29:25;;;;;;;0.20;0.10;;;;;;;;;;5087997;28;20032;-62
2021/11/20 03:31:53;;;;;;;0.50;0.20;;;;;;;;;;5087991;28;20347;-62
2021/11/20 03:34:24;;;;;;;0.23;0.20;;;;;;;;;;5086792;28;20043;-62
2021/11/20 03:36:52;;;;;;;0.33;0.20;;;;;;;;;;5088215;28;20052;-62
2021/11/20 03:39:19;;;;;;;0.10;0.10;;;;;;;;;;5092226;28;20026;-62
2021/11/20 03:41:46;;;;;;;0.10;0.10;;;;;;;;;;5092983;28;20016;-62
2021/11/20 03:44:14;;;;;;;2.73;0.83;;;;;;;;;;5092320;28;20553;-62
2021/11/20 03:46:40;;;;;;;1.03;0.10;;;;;;;;;;5092989;28;20042;-63
2021/11/20 03:49:07;;;;;;;0.27;0.07;;;;;;;;;;5091979;28;20020;-62
2021/11/20 03:51:34;;;;;;;0.13;0.10;;;;;;;;;;5087611;28;20027;-62
2021/11/20 03:54:02;;;;;;;0.30;0.10;;;;;;;;;;5086948;28;20028;-62
2021/11/20 03:56:30;;;;;;;0.20;0.17;;;;;;;;;;5087119;28;20031;-62
2021/11/20 03:58:57;;;;;;;0.20;0.10;;;;;;;;;;5087309;28;20024;-62
2021/11/20 04:01:25;;;;;;;0.10;0.00;;;;;;;;;;5092225;28;20421;-63
2021/11/20 04:03:51;;;;;;;0.30;0.17;;;;;;;;;;5092049;28;20070;-62
2021/11/20 04:06:19;;;;;;;6.43;0.23;;;;;;;;;;5092151;28;20032;-62
2021/11/20 04:08:50;;;;;;;0.00;0.00;;;;;;;;;;5091725;28;20118;-62
2021/11/20 04:11:20;;;;;;;0.50;0.10;;;;;;;;;;5090906;28;20020;-62
2021/11/20 04:13:47;;;;;;;0.10;0.10;;;;;;;;;;5086520;28;20123;-62
2021/11/20 04:16:15;;;;;;;1.07;0.20;;;;;;;;;;5086649;28;20039;-62
2021/11/20 04:18:44;;;;;;;0.37;0.10;;;;;;;;;;5087368;28;20099;-62
2021/11/20 04:21:13;;;;;;;1.53;0.20;;;;;;;;;;5087223;28;20027;-62
2021/11/20 04:23:40;;;;;;;1.77;0.27;;;;;;;;;;5091902;28;20027;-62
2021/11/20 04:26:07;;;;;;;0.10;0.03;;;;;;;;;;5091994;28;20016;-62
2021/11/20 04:28:34;;;;;;;2.07;0.10;;;;;;;;;;5092113;28;20093;-62
2021/11/20 04:31:01;;;;;;;0.10;0.10;;;;;;;;;;5092122;28;20028;-62
2021/11/20 04:33:28;;;;;;;0.20;0.10;;;;;;;;;;5090796;28;20371;-63
2021/11/20 04:35:55;;;;;;;0.20;0.10;;;;;;;;;;5086660;28;20027;-62
2021/11/20 04:38:22;;;;;;;0.10;0.03;;;;;;;;;;5086093;28;20035;-63
2021/11/20 04:40:49;;;;;;;0.00;0.00;;;;;;;;;;5086869;28;20034;-63
2021/11/20 04:43:19;;;;;;;0.20;0.10;;;;;;;;;;5085416;28;20479;-62
2021/11/20 04:45:48;;;;;;;0.10;0.10;;;;;;;;;;5092422;28;20024;-62
2021/11/20 04:48:15;;;;;;;0.20;0.17;;;;;;;;;;5096013;28;20470;-62
2021/11/20 04:50:44;;;;;;;0.10;0.10;;;;;;;;;;5096086;28;20103;-62
2021/11/20 04:53:11;;;;;;;0.10;0.00;;;;;;;;;;5096196;28;20471;-63
2021/11/20 04:55:38;;;;;;;0.10;0.10;;;;;;;;;;5095751;28;20022;-62
2021/11/20 04:58:05;;;;;;;0.23;0.10;;;;;;;;;;5090760;28;20143;-63
2021/11/20 05:00:37;;;;;;;1.23;0.17;;;;;;;;;;5090706;28;20540;-62
2021/11/20 05:03:07;;;;;;;0.07;0.07;;;;;;;;;;5090469;28;20028;-62
2021/11/20 05:05:37;;;;;;;0.10;0.10;;;;;;;;;;5090722;28;20475;-62
2021/11/20 05:08:04;;;;;;;0.43;0.20;;;;;;;;;;5095155;28;20024;-62
2021/11/20 05:10:32;;;;;;;0.00;0.00;;;;;;;;;;5095992;28;20023;-62
2021/11/20 05:12:59;;;;;;;0.13;0.10;;;;;;;;;;5094994;28;20086;-63
2021/11/20 05:15:27;;;;;;;0.20;0.10;;;;;;;;;;5095549;28;20032;-62
2021/11/20 05:17:53;;;;;;;0.43;0.27;;;;;;;;;;5095595;28;20366;-62
2021/11/20 05:20:20;;;;;;;0.83;0.23;;;;;;;;;;5090730;28;20103;-62
2021/11/20 05:22:47;;;;;;;1.03;0.10;;;;;;;;;;5090300;28;20020;-62
2021/11/20 05:25:18;;;;;;;0.47;0.10;;;;;;;;;;5089929;28;20119;-62
2021/11/20 05:27:45;;;;;;;0.40;0.20;;;;;;;;;;5090058;28;20040;-62
2021/11/20 05:30:17;;;;;;;0.10;0.10;;;;;;;;;;5095373;28;20378;-62
2021/11/20 05:32:45;;;;;;;0.20;0.20;;;;;;;;;;5095091;28;20099;-62
2021/11/20 05:35:12;;;;;;;0.20;0.10;;;;;;;;;;5095153;28;20036;-62
2021/11/20 05:37:39;;;;;;;0.17;0.10;;;;;;;;;;5094700;28;20374;-64
2021/11/20 05:40:10;;;;;;;0.77;0.20;;;;;;;;;;5095290;28;20465;-62
2021/11/20 05:42:38;;;;;;;0.30;0.10;;;;;;;;;;5089873;28;20359;-62
2021/11/20 05:45:06;;;;;;;0.23;0.17;;;;;;;;;;5090147;28;20378;-60
2021/11/20 05:47:33;;;;;;;0.10;0.00;;;;;;;;;;5089995;28;20099;-61
2021/11/20 05:50:01;;;;;;;0.63;0.20;;;;;;;;;;5089920;28;20028;-61
2021/11/20 05:52:27;;;;;;;0.03;0.03;;;;;;;;;;5094692;28;20024;-61
2021/11/20 05:54:54;;;;;;;0.67;0.17;;;;;;;;;;5095011;28;20512;-61
2021/11/20 05:57:21;;;;;;;0.00;0.00;;;;;;;;;;5094267;28;20036;-60
2021/11/20 05:59:48;;;;;;;0.00;0.00;;;;;;;;;;5094733;28;20576;-61
2021/11/20 06:02:15;;;;;;;0.63;0.10;;;;;;;;;;5094657;28;20036;-61
2021/11/20 06:04:42;;;;;;;1.20;0.10;;;;;;;;;;5089786;28;20387;-61
2021/11/20 06:07:11;;;;;;;0.63;0.10;;;;;;;;;;5089530;28;20039;-61
2021/11/20 06:09:39;;;;;;;0.30;0.10;;;;;;;;;;5089468;28;20017;-61
2021/11/20 06:12:06;;;;;;;0.20;0.10;;;;;;;;;;5089446;28;20071;-61
2021/11/20 06:14:33;;;;;;;0.10;0.07;;;;;;;;;;5094222;28;20028;-60
2021/11/20 06:17:00;;;;;;;0.13;0.10;;;;;;;;;;5094557;28;20461;-61
2021/11/20 06:19:27;;;;;;;0.00;0.00;;;;;;;;;;5094602;28;20020;-60
2021/11/20 06:21:53;;;;;;;0.03;0.03;;;;;;;;;;5094850;28;20036;-60
2021/11/20 06:24:20;;;;;;;0.10;0.10;;;;;;;;;;5094071;28;20016;-61
2021/11/20 06:26:47;;;;;;;0.93;0.10;;;;;;;;;;5089656;28;20348;-60
2021/11/20 06:29:15;;;;;;;0.83;0.17;;;;;;;;;;5089341;28;20032;-61
2021/11/20 06:31:42;;;;;;;0.00;0.00;;;;;;;;;;5088983;28;20024;-61
2021/11/20 06:34:09;;;;;;;1.07;0.10;;;;;;;;;;5088889;28;20036;-61
2021/11/20 06:36:36;;;;;;;0.00;0.00;;;;;;;;;;5093319;28;20024;-61
2021/11/20 06:39:03;;;;;;;0.50;0.20;;;;;;;;;;5094152;28;20028;-61
2021/11/20 06:41:29;;;;;;;0.10;0.00;;;;;;;;;;5094205;28;20031;-60
2021/11/20 06:43:56;;;;;;;1.30;0.13;;;;;;;;;;5094193;28;20035;-60
2021/11/20 06:46:23;;;;;;;0.00;0.00;;;;;;;;;;5094336;28;20032;-60
2021/11/20 06:48:50;;;;;;;0.13;0.10;;;;;;;;;;5089304;28;20028;-61
2021/11/20 06:51:18;;;;;;;0.00;0.00;;;;;;;;;;5088743;28;20020;-60
2021/11/20 06:53:45;;;;;;;0.00;0.00;;;;;;;;;;5088676;28;20032;-60
2021/11/20 06:56:25;;;;;;;0.13;0.00;;;;;;;;;;5088297;28;20032;-60
2021/11/20 07:01:18;;;;;;;0.43;0.10;;;;;;;;;;5093380;28;20054;-60
2021/11/20 07:03:48;;;;;;;0.20;0.10;;;;;;;;;;5093807;28;20016;-61
2021/11/20 07:06:29;;;;;;;0.00;0.00;;;;;;;;;;5093884;28;20016;-60
2021/11/20 07:08:56;;;;;;;0.00;0.00;;;;;;;;;;5093650;28;20043;-60
2021/11/20 07:11:24;;;;;;;0.40;0.07;;;;;;;;;;5088512;28;20067;-61
2021/11/20 07:13:51;;;;;;;0.00;0.00;;;;;;;;;;5088279;28;20038;-61
2021/11/20 07:16:19;;;;;;;0.40;0.10;;;;;;;;;;5088506;28;20104;-60
2021/11/20 07:18:46;;;;;;;0.00;0.00;;;;;;;;;;5088039;28;20030;-60
2021/11/20 07:21:13;;;;;;;0.00;0.00;;;;;;;;;;5092842;28;20107;-61
2021/11/20 07:23:40;;;;;;;0.10;0.10;;;;;;;;;;5093293;28;20101;-60
2021/11/20 07:26:08;;;;;;;0.10;0.00;;;;;;;;;;5093312;28;20052;-61
2021/11/20 07:28:35;;;;;;;0.53;0.20;;;;;;;;;;5093401;28;20081;-60
2021/11/20 07:31:02;;;;;;;0.17;0.07;;;;;;;;;;5093003;28;20471;-61
2021/11/20 07:33:29;;;;;;;0.03;0.00;;;;;;;;;;5087852;28;20518;-61
2021/11/20 07:35:58;;;;;;;1.53;0.10;;;;;;;;;;5088061;28;20023;-60
2021/11/20 07:38:27;;;;;;;0.10;0.00;;;;;;;;;;5087958;28;20224;-61
2021/11/20 07:40:54;;;;;;;0.60;0.10;;;;;;;;;;5087813;28;20096;-61
2021/11/20 07:43:21;;;;;;;0.10;0.10;;;;;;;;;;5092389;28;20036;-61
2021/11/20 07:45:47;;;;;;;0.00;0.00;;;;;;;;;;5093057;28;20386;-61
2021/11/20 07:48:15;;;;;;;0.10;0.10;;;;;;;;;;5092860;28;20488;-60
2021/11/20 07:50:44;;;;;;;0.47;0.10;;;;;;;;;;5092859;28;20024;-60
2021/11/20 07:53:11;;;;;;;0.40;0.07;;;;;;;;;;5092722;28;20107;-60
2021/11/20 07:55:38;;;;;;;0.20;0.13;;;;;;;;;;5087880;28;20494;-60
2021/11/20 07:58:05;;;;;;;0.00;0.00;;;;;;;;;;5087608;28;20029;-61
2021/11/20 08:00:32;;;;;;;0.03;0.00;;;;;;;;;;5087252;28;20032;-60
2021/11/20 08:02:59;;;;;;;1.60;0.10;;;;;;;;;;5087471;28;20032;-60
2021/11/20 08:05:28;;;;;;;0.13;0.07;;;;;;;;;;5091679;28;20471;-60
2021/11/20 08:07:55;;;;;;;0.30;0.10;;;;;;;;;;5092627;28;20456;-60
2021/11/20 08:10:23;;;;;;;0.87;0.10;;;;;;;;;;5092359;28;20028;-60
2021/11/20 08:12:50;;;;;;;0.10;0.10;;;;;;;;;;5092603;28;20413;-61
2021/11/20 08:15:17;;;;;;;0.43;0.10;;;;;;;;;;5092606;28;20031;-60
2021/11/20 08:17:44;;;;;;;0.00;0.00;;;;;;;;;;5087766;28;20034;-61
2021/11/20 08:20:13;;;;;;;0.07;0.00;;;;;;;;;;5087018;28;20020;-60
2021/11/20 08:22:40;;;;;;;0.13;0.03;;;;;;;;;;5087145;28;20028;-61
2021/11/20 08:25:08;;;;;;;0.10;0.10;;;;;;;;;;5087119;28;20059;-61
2021/11/20 08:27:35;;;;;;;0.23;0.10;;;;;;;;;;5091375;28;20028;-60
2021/11/20 08:30:02;;;;;;;0.10;0.10;;;;;;;;;;5091837;28;20035;-61
2021/11/20 08:32:29;;;;;;;0.20;0.10;;;;;;;;;;5092244;28;20042;-60
2021/11/20 08:34:58;;;;;;;2.03;0.20;;;;;;;;;;5091833;28;20028;-60
2021/11/20 08:37:25;;;;;;;0.43;0.10;;;;;;;;;;5092277;28;20028;-61
2021/11/20 08:39:54;;;;;;;0.10;0.00;;;;;;;;;;5088033;28;20028;-60
2021/11/20 08:42:22;;;;;;;0.10;0.10;;;;;;;;;;5087072;28;20032;-61
2021/11/20 08:44:48;;;;;;;0.10;0.00;;;;;;;;;;5087100;28;20129;-61
2021/11/20 08:47:15;;;;;;;0.23;0.07;;;;;;;;;;5086965;28;20059;-61
2021/11/20 08:49:43;;;;;;;0.00;0.00;;;;;;;;;;5090648;28;20168;-61
2021/11/20 08:52:10;;;;;;;0.10;0.10;;;;;;;;;;5092108;28;20317;-60
2021/11/20 08:54:37;;;;;;;0.00;0.00;;;;;;;;;;5092243;28;20051;-60
2021/11/20 08:57:04;;;;;;;0.00;0.00;;;;;;;;;;5092317;28;20056;-61
2021/11/20 08:59:32;;;;;;;0.00;0.00;;;;;;;;;;5092204;28;20036;-60
2021/11/20 09:02:17;;;;;;;0.10;0.00;;;;;;;;;;5087743;28;20040;-60
2021/11/20 09:04:48;;;;;;;0.17;0.10;;;;;;;;;;5087106;28;20028;-61
2021/11/20 09:07:14;;;;;;;0.20;0.00;;;;;;;;;;5086129;28;20017;-61
2021/11/20 09:09:44;;;;;;;0.00;0.00;;;;;;;;;;5086744;28;20028;-60
2021/11/20 09:12:14;;;;;;;0.00;0.00;;;;;;;;;;5091302;28;20028;-60
2021/11/20 09:14:44;;;;;;;0.20;0.10;;;;;;;;;;5091792;28;20532;-60
2021/11/20 09:17:13;;;;;;;0.33;0.10;;;;;;;;;;5091898;28;20036;-61
2021/11/20 09:19:40;;;;;;;0.00;0.00;;;;;;;;;;5091634;28;20099;-61
2021/11/20 09:22:07;;;;;;;0.10;0.00;;;;;;;;;;5091854;28;20021;-60
2021/11/20 09:24:35;;;;;;;0.13;0.03;;;;;;;;;;5086472;28;20031;-61
2021/11/20 09:27:02;;;;;;;0.00;0.00;;;;;;;;;;5086403;28;20063;-60
2021/11/20 09:29:30;;;;;;;0.00;0.00;;;;;;;;;;5086566;28;20024;-61
2021/11/20 09:31:57;;;;;;;0.27;0.13;;;;;;;;;;5086568;28;20531;-61
2021/11/20 09:34:24;;;;;;;0.00;0.00;;;;;;;;;;5094045;28;20512;-60
2021/11/20 09:36:54;;;;;;;0.20;0.00;;;;;;;;;;5095126;28;20027;-61
2021/11/20 09:39:22;;;;;;;0.00;0.00;;;;;;;;;;5095501;28;20035;-60
2021/11/20 09:41:52;;;;;;;0.93;0.10;;;;;;;;;;5094827;28;20482;-61
2021/11/20 09:44:19;;;;;;;0.73;0.20;;;;;;;;;;5095281;28;20032;-60
2021/11/20 09:46:49;;;;;;;0.27;0.10;;;;;;;;;;5089898;28;20082;-61
2021/11/20 09:49:17;;;;;;;0.00;0.00;;;;;;;;;;5090017;28;20028;-61
2021/11/20 09:51:48;;;;;;;0.23;0.10;;;;;;;;;;5090010;28;20054;-61
2021/11/20 09:54:19;;;;;;;0.33;0.10;;;;;;;;;;5089470;28;20089;-61
2021/11/20 09:56:49;;;;;;;0.13;0.10;;;;;;;;;;5094570;28;20456;-60
2021/11/20 09:59:27;;;;;;;0.40;0.10;;;;;;;;;;5095043;28;20028;-61
2021/11/20 10:02:13;;;;;;;0.10;0.10;;;;;;;;;;5094375;28;20057;-61
2021/11/20 10:04:52;;;;;;;0.20;0.10;;;;;;;;;;5094914;28;20536;-60
2021/11/20 10:07:28;;;;;;;0.20;0.00;;;;;;;;;;5093444;28;20074;-61
2021/11/20 10:09:58;;;;;;;0.10;0.10;;;;;;;;;;5089653;28;20021;-61
2021/11/20 10:12:27;;;;;;;0.00;0.00;;;;;;;;;;5089208;28;20055;-61
2021/11/20 10:15:00;;;;;;;0.00;0.00;;;;;;;;;;5089481;28;20054;-61
2021/11/20 10:17:27;;;;;;;0.00;0.00;;;;;;;;;;5090801;28;20524;-60
2021/11/20 10:19:56;;;;;;;0.00;0.00;;;;;;;;;;5094747;28;20020;-61
2021/11/20 10:22:30;;;;;;;0.77;0.13;;;;;;;;;;5094547;28;20062;-61
2021/11/20 10:25:15;;;;;;;0.03;0.03;;;;;;;;;;5094164;28;20348;-60
2021/11/20 10:27:55;;;;;;;2.08;0.00;;;;;;;;;;5094758;28;20383;-61
2021/11/20 10:30:33;;;;;;;0.00;0.00;;;;;;;;;;5091172;28;20016;-61
2021/11/20 10:33:12;;;;;;;0.00;0.00;;;;;;;;;;5089191;28;20020;-60
2021/11/20 10:35:43;;;;;;;0.17;0.00;;;;;;;;;;5089192;28;20438;-60
2021/11/20 10:38:27;;;;;;;0.00;0.00;;;;;;;;;;5089203;28;20051;-60
2021/11/20 10:41:03;;;;;;;0.17;0.00;;;;;;;;;;5092894;28;20035;-61
2021/11/20 10:43:29;;;;;;;0.00;0.00;;;;;;;;;;5093985;28;20024;-60
2021/11/20 10:46:15;;;;;;;1.17;0.03;;;;;;;;;;5094108;28;20466;-61
2021/11/20 10:48:44;;;;;;;0.15;0.00;;;;;;;;;;5093585;28;20095;-61
2021/11/20 10:51:17;;;;;;;0.20;0.10;;;;;;;;;;5093937;28;20028;-60
2021/11/20 10:54:10;;;;;;;0.50;0.13;;;;;;;;;;5088687;28;20032;-60
2021/11/20 10:56:44;;;;;;;1.80;0.40;;;;;;;;;;5057553;28;20036;-61
2021/11/20 10:59:20;;;;;;;0.77;0.20;;;;;;;;;;5088666;28;20055;-62
2021/11/20 11:01:59;;;;;;;2.23;0.27;;;;;;;;;;5090075;28;20028;-61
2021/11/20 11:04:37;;;;;;;0.10;0.10;;;;;;;;;;5093519;28;20128;-60
2021/11/20 11:07:11;;;;;;;1.00;0.30;;;;;;;;;;5093815;28;20104;-60
2021/11/20 11:09:37;;;;;;;0.43;0.00;;;;;;;;;;5092442;28;20425;-61
2021/11/20 11:12:08;;;;;;;0.10;0.10;;;;;;;;;;5093595;28;20027;-61
2021/11/20 11:14:55;;;;;;;0.20;0.10;;;;;;;;;;5090532;28;20061;-62
2021/11/20 11:17:40;;;;;;;2.33;1.20;;;;;;;;;;5088170;28;20139;-61
2021/11/20 11:20:18;;;;;;;7.57;4.15;;;;;;;;;;5088477;28;20473;-61
2021/11/20 11:22:49;;;;;;;3.40;2.10;;;;;;;;;;5087743;28;20027;-61
2021/11/20 11:25:20;;;;;;;2.10;1.00;;;;;;;;;;5092322;28;20182;-61
2021/11/20 11:28:05;;;;;;;0.73;0.40;;;;;;;;;;5093573;28;20117;-61
2021/11/20 11:30:50;;;;;;;0.75;0.50;;;;;;;;;;5093211;28;20028;-61
2021/11/20 11:33:17;;;;;;;0.38;0.30;;;;;;;;;;5093386;28;20481;-61
2021/11/20 11:35:47;;;;;;;0.47;0.20;;;;;;;;;;5092570;28;20089;-60
2021/11/20 11:38:20;;;;;;;0.23;0.10;;;;;;;;;;5087890;28;20095;-61
2021/11/20 11:40:50;;;;;;;1.10;0.30;;;;;;;;;;5087797;28;20081;-61
2021/11/20 11:43:20;;;;;;;0.30;0.20;;;;;;;;;;5087616;28;20378;-61
2021/11/20 11:45:49;;;;;;;1.97;0.10;;;;;;;;;;5087906;28;20111;-61
2021/11/20 11:48:16;;;;;;;0.50;0.20;;;;;;;;;;5092995;28;20040;-61
2021/11/20 11:51:03;;;;;;;0.20;0.20;;;;;;;;;;5092909;28;20110;-61
2021/11/20 11:53:48;;;;;;;6.80;0.30;;;;;;;;;;5092530;28;20253;-61
2021/11/20 11:56:25;;;;;;;0.22;0.10;;;;;;;;;;5092038;28;20056;-61
2021/11/20 11:59:04;;;;;;;0.80;0.33;;;;;;;;;;5090446;28;20097;-61
2021/11/20 12:01:43;;;;;;;0.50;0.20;;;;;;;;;;5087572;28;20758;-61
2021/11/20 12:04:28;;;;;;;0.87;0.17;;;;;;;;;;5087508;28;20059;-61
2021/11/20 12:07:12;;;;;;;0.10;0.10;;;;;;;;;;5087289;28;20690;-60
2021/11/20 12:09:49;;;;;;;0.40;0.17;;;;;;;;;;5091600;28;20471;-61
2021/11/20 12:12:28;;;;;;;0.47;0.20;;;;;;;;;;5092796;28;20267;-61
2021/11/20 12:15:05;;;;;;;0.73;0.40;;;;;;;;;;5091650;28;20369;-61
2021/11/20 12:17:53;;;;;;;0.77;0.60;;;;;;;;;;5092646;28;20050;-61
2021/11/20 12:20:20;;;;;;;0.20;0.20;;;;;;;;;;5091571;28;20283;-61
2021/11/20 12:22:58;;;;;;;0.10;0.10;;;;;;;;;;5087139;28;20272;-61
2021/11/20 12:25:46;;;;;;;1.07;0.40;;;;;;;;;;5087205;28;20895;-61
2021/11/20 12:28:35;;;;;;;2.57;0.20;;;;;;;;;;5086995;28;20311;-61
2021/11/20 12:31:12;;;;;;;0.63;0.20;;;;;;;;;;5057989;28;20314;-60
2021/11/20 12:33:48;;;;;;;0.20;0.20;;;;;;;;;;5092179;28;20257;-61
2021/11/20 12:36:17;;;;;;;0.20;0.10;;;;;;;;;;5092362;28;20249;-60
2021/11/20 12:39:01;;;;;;;0.97;0.60;;;;;;;;;;5091849;28;20264;-61
2021/11/20 12:41:37;;;;;;;4.80;0.97;;;;;;;;;;5092488;28;20280;-60
2021/11/20 12:44:04;;;;;;;2.43;0.60;;;;;;;;;;5087559;28;20302;-61
2021/11/20 12:46:37;;;;;;;3.17;0.50;;;;;;;;;;5086883;28;20343;-61
2021/11/20 12:49:27;;;;;;;8.40;1.17;;;;;;;;;;5087010;28;20256;-61
2021/11/20 12:52:03;;;;;;;0.80;0.50;;;;;;;;;;5076516;28;20265;-61
2021/11/20 12:54:48;;;;;;;1.27;0.70;;;;;;;;;;5092057;28;20284;-61
2021/11/20 12:57:23;;;;;;;2.00;0.68;;;;;;;;;;5092292;28;20245;-60
2021/11/20 12:59:55;;;;;;;1.60;1.00;;;;;;;;;;5092104;28;20024;-61
2021/11/20 13:02:24;;;;;;;2.80;0.90;;;;;;;;;;5092216;28;20040;-60
2021/11/20 13:04:53;;;;;;;8.03;1.57;;;;;;;;;;5090021;28;20264;-61
2021/11/20 13:07:24;;;;;;;1.07;0.67;;;;;;;;;;5088268;28;20264;-60
2021/11/20 13:10:00;;;;;;;2.60;0.50;;;;;;;;;;5090721;28;20615;-61
2021/11/20 13:12:27;;;;;;;5.73;0.80;;;;;;;;;;5090575;28;20811;-61
2021/11/20 13:15:12;;;;;;;6.77;1.50;;;;;;;;;;5092051;28;20295;-61
2021/11/20 13:17:53;;;;;;;0.95;0.65;;;;;;;;;;5095904;28;20248;-61
2021/11/20 13:20:49;;;;;;;1.70;0.70;;;;;;;;;;5095943;28;20027;-61
2021/11/20 13:23:17;;;;;;;0.90;0.70;;;;;;;;;;5041149;28;20684;-60
2021/11/20 13:25:50;;;;;;;3.83;1.43;;;;;;;;;;5095773;28;20031;-62
2021/11/20 13:28:16;;;;;;;1.67;0.90;;;;;;;;;;5090967;28;20265;-61
2021/11/20 13:30:44;;;;;;;3.53;1.27;;;;;;;;;;5090031;28;20300;-62
2021/11/20 13:33:11;;;;;;;3.43;1.30;;;;;;;;;;5090130;28;20339;-61
2021/11/20 13:35:40;;;;;;;4.13;1.40;;;;;;;;;;5090230;28;20059;-61
2021/11/20 13:38:09;;;;;;;4.67;1.77;;;;;;;;;;5093773;28;20400;-61
2021/11/20 13:40:41;;;;;;;6.10;2.20;;;;;;;;;;5095405;28;20462;-62
2021/11/20 13:43:25;;;;;;;5.43;1.20;;;;;;;;;;5095243;28;20058;-61
2021/11/20 13:45:53;;;;;;;4.80;1.90;;;;;;;;;;5095207;28;20067;-61
2021/11/20 13:48:21;;;;;;;8.23;1.80;;;;;;;;;;5095384;28;20378;-61
2021/11/20 13:50:48;;;;;;;2.40;0.80;;;;;;;;;;5090017;28;20020;-62
2021/11/20 13:53:16;;;;;;;1.70;0.93;;;;;;;;;;5090170;28;20179;-61
2021/11/20 13:55:49;;;;;;;1.60;0.70;;;;;;;;;;5089730;28;20044;-62
2021/11/20 13:58:28;;;;;;;1.13;0.57;;;;;;;;;;5089801;28;20115;-61
2021/11/20 14:00:57;;;;;;;3.37;1.30;;;;;;;;;;5095051;28;20452;-61
2021/11/20 14:03:24;;;;;;;1.40;0.80;;;;;;;;;;5094930;28;20494;-61
2021/11/20 14:05:52;;;;;;;4.83;1.23;;;;;;;;;;5094739;28;20035;-62
2021/11/20 14:08:19;;;;;;;2.67;1.17;;;;;;;;;;5094677;28;20498;-62
2021/11/20 14:11:01;;;;;;;1.80;1.10;;;;;;;;;;5094394;28;20024;-61
2021/11/20 14:13:30;;;;;;;3.40;1.40;;;;;;;;;;5088458;28;20020;-62
2021/11/20 14:15:57;;;;;;;1.67;0.80;;;;;;;;;;5089482;28;20028;-61
2021/11/20 14:18:25;;;;;;;2.00;1.20;;;;;;;;;;5088320;28;20031;-62
2021/11/20 14:21:02;;;;;;;4.30;1.40;;;;;;;;;;5089814;28;20031;-61
2021/11/20 14:23:32;;;;;;;3.73;1.23;;;;;;;;;;5094815;28;20020;-62
2021/11/20 14:26:03;;;;;;;1.83;1.03;;;;;;;;;;5094652;28;20154;-61
2021/11/20 14:28:42;;;;;;;2.23;0.93;;;;;;;;;;5094323;28;20085;-61
2021/11/20 14:31:13;;;;;;;2.37;0.77;;;;;;;;;;5094111;28;20913;-61
2021/11/20 14:33:55;;;;;;;5.40;0.70;;;;;;;;;;5092525;28;20024;-63
2021/11/20 14:36:41;;;;;;;1.27;0.70;;;;;;;;;;5089191;28;20153;-62
2021/11/20 14:39:13;;;;;;;0.80;0.30;;;;;;;;;;5089085;28;20028;-62
2021/11/20 14:41:39;;;;;;;0.70;0.40;;;;;;;;;;5089100;28;20039;-61
2021/11/20 14:44:07;;;;;;;0.20;0.17;;;;;;;;;;5091674;28;20031;-62
2021/11/20 14:46:34;;;;;;;0.40;0.20;;;;;;;;;;5093805;28;20028;-62
2021/11/20 14:49:11;;;;;;;0.43;0.40;;;;;;;;;;5093690;28;20031;-62
2021/11/20 14:51:42;;;;;;;0.50;0.30;;;;;;;;;;5094292;28;20366;-62
2021/11/20 14:54:10;;;;;;;1.60;0.37;;;;;;;;;;5094101;28;20032;-61
2021/11/20 14:56:37;;;;;;;0.80;0.60;;;;;;;;;;5090310;28;20541;-62
2021/11/20 14:59:03;;;;;;;1.37;0.43;;;;;;;;;;5088835;28;20442;-62
2021/11/20 15:01:30;;;;;;;2.10;0.37;;;;;;;;;;5087450;28;20428;-61
2021/11/20 15:03:57;;;;;;;1.37;0.50;;;;;;;;;;5088236;28;20027;-62